Time;durP1;ratioP1;P1;durP2;ratioP2;P2;SDS_P1;SDS_P2;PMS_P1;PMS_P2;Temp;Humidity;BMP_temperature;BMP_pressure;BME280_temperature;BME280_humidity;BME280_pressure;Samples;Min_cycle;Max_cycle;Signal;HPM_P1;HPM_P2
2023/01/31 00:01:51;;;;;;;17.10;5.93;;;5.20;99.90;;;;;;5091992;28;20223;-91
2023/01/31 00:07:20;;;;;;;29.37;6.93;;;5.30;99.90;;;;;;5094074;28;20229;-93
2023/01/31 00:09:55;;;;;;;20.27;5.70;;;5.40;99.90;;;;;;5095830;28;20206;-92
2023/01/31 00:12:25;;;;;;;20.67;6.23;;;5.40;99.90;;;;;;5094200;28;20234;-92
2023/01/31 00:15:28;;;;;;;22.40;7.20;;;5.40;99.90;;;;;;5094163;28;20210;-92
2023/01/31 00:17:58;;;;;;;14.00;5.90;;;5.30;99.90;;;;;;5095421;28;20205;-92
2023/01/31 00:20:31;;;;;;;15.33;6.37;;;5.30;99.90;;;;;;5094651;28;20198;-94
2023/01/31 00:23:04;;;;;;;19.27;6.50;;;5.30;99.90;;;;;;5094851;28;20198;-92
2023/01/31 00:25:38;;;;;;;17.50;5.60;;;5.20;99.90;;;;;;5093670;28;20202;-92
2023/01/31 00:28:18;;;;;;;18.20;6.73;;;5.20;99.90;;;;;;5092533;28;20213;-93
2023/01/31 00:30:50;;;;;;;19.77;6.53;;;5.30;99.90;;;;;;5093405;28;20287;-92
2023/01/31 00:33:19;;;;;;;19.03;5.73;;;5.30;99.90;;;;;;5093377;28;20202;-94
2023/01/31 00:35:51;;;;;;;24.27;6.90;;;5.30;99.90;;;;;;5091679;28;20209;-91
2023/01/31 00:38:27;;;;;;;19.77;8.13;;;5.30;99.90;;;;;;5092305;28;20213;-91
2023/01/31 00:41:01;;;;;;;19.30;6.73;;;5.20;99.90;;;;;;5093583;28;20660;-92
2023/01/31 00:43:29;;;;;;;21.07;6.23;;;5.20;99.90;;;;;;5089957;28;20202;-90
2023/01/31 00:46:00;;;;;;;15.20;6.00;;;5.10;99.90;;;;;;5090104;28;20229;-90
2023/01/31 00:48:36;;;;;;;17.43;5.63;;;5.10;99.90;;;;;;5092212;28;20197;-91
2023/01/31 00:51:08;;;;;;;17.03;6.60;;;5.10;99.90;;;;;;5092547;28;20229;-91
2023/01/31 00:53:38;;;;;;;21.97;6.17;;;5.10;99.90;;;;;;5089603;28;20290;-91
2023/01/31 00:56:13;;;;;;;23.53;7.87;;;5.10;99.90;;;;;;5091179;28;20232;-93
2023/01/31 00:58:42;;;;;;;18.37;6.67;;;5.20;99.90;;;;;;5091499;28;20198;-91
2023/01/31 01:01:13;;;;;;;27.47;6.90;;;5.30;99.90;;;;;;5092400;28;20204;-93
2023/01/31 01:03:42;;;;;;;16.67;6.50;;;5.40;99.90;;;;;;5092095;28;20226;-91
2023/01/31 01:06:14;;;;;;;24.27;6.83;;;5.30;99.90;;;;;;5092699;28;20209;-91
2023/01/31 01:08:52;;;;;;;23.37;7.07;;;5.40;99.90;;;;;;5090973;28;20251;-93
2023/01/31 01:11:21;;;;;;;23.07;7.03;;;5.30;99.90;;;;;;5090465;28;20233;-92
2023/01/31 01:13:57;;;;;;;19.83;6.30;;;5.20;99.90;;;;;;5090812;28;20208;-91
2023/01/31 01:16:33;;;;;;;19.43;7.30;;;5.10;99.90;;;;;;5092692;28;20206;-90
2023/01/31 01:19:04;;;;;;;23.17;7.67;;;5.20;99.90;;;;;;5092780;28;20290;-92
2023/01/31 01:21:39;;;;;;;27.77;6.97;;;5.10;99.90;;;;;;5092891;28;20216;-91
2023/01/31 01:24:16;;;;;;;20.80;6.70;;;5.10;99.90;;;;;;5092539;28;20209;-95
2023/01/31 01:26:50;;;;;;;22.13;7.27;;;5.20;99.90;;;;;;5089882;28;20274;-92
2023/01/31 01:29:23;;;;;;;19.03;5.87;;;5.10;99.90;;;;;;5089220;28;20209;-91
2023/01/31 01:31:50;;;;;;;20.07;7.13;;;5.00;99.90;;;;;;5088928;28;20287;-92
2023/01/31 01:34:20;;;;;;;21.40;6.63;;;5.00;99.90;;;;;;5089371;28;20684;-91
2023/01/31 01:36:50;;;;;;;19.13;7.45;;;5.00;99.90;;;;;;5090089;28;20553;-91
2023/01/31 01:39:22;;;;;;;23.70;7.03;;;4.90;99.90;;;;;;5090411;28;20194;-90
2023/01/31 01:41:58;;;;;;;21.67;7.03;;;4.90;99.90;;;;;;5091583;28;20205;-92
2023/01/31 01:44:54;;;;;;;19.50;6.33;;;4.90;99.90;;;;;;5090781;28;20423;-90
2023/01/31 01:47:52;;;;;;;18.43;6.47;;;4.90;99.90;;;;;;5092173;28;20210;-90
2023/01/31 01:50:34;;;;;;;23.03;7.60;;;4.90;99.90;;;;;;5092291;28;20226;-89
2023/01/31 01:53:14;;;;;;;20.27;6.60;;;4.80;99.90;;;;;;5091036;28;20265;-92
2023/01/31 01:55:54;;;;;;;18.03;6.97;;;4.80;99.90;;;;;;5092412;28;20218;-91
2023/01/31 01:58:33;;;;;;;20.43;6.77;;;4.80;99.90;;;;;;5092348;28;20205;-91
2023/01/31 02:01:15;;;;;;;20.73;7.27;;;4.70;99.90;;;;;;5092045;28;20225;-91
2023/01/31 02:03:47;;;;;;;18.80;7.13;;;4.60;99.90;;;;;;5093013;28;20202;-92
2023/01/31 02:06:18;;;;;;;16.33;6.83;;;4.80;99.90;;;;;;5091409;28;20201;-95
2023/01/31 02:08:53;;;;;;;29.67;8.10;;;4.60;99.90;;;;;;5090544;28;20209;-91
2023/01/31 02:11:24;;;;;;;20.37;7.10;;;4.50;99.90;;;;;;5085734;28;20225;-92
2023/01/31 02:14:05;;;;;;;22.27;7.50;;;4.50;99.90;;;;;;5085174;28;20209;-92
2023/01/31 02:16:39;;;;;;;23.53;7.40;;;4.50;99.90;;;;;;5085564;28;20210;-90
2023/01/31 02:19:27;;;;;;;19.77;7.60;;;4.50;99.90;;;;;;5086598;28;20225;-92
2023/01/31 02:22:14;;;;;;;18.00;7.93;;;4.30;99.90;;;;;;5085718;28;20242;-91
2023/01/31 02:25:26;;;;;;;21.37;7.63;;;4.20;99.90;;;;;;5087006;28;20263;-91
2023/01/31 02:28:25;;;;;;;21.77;7.67;;;4.20;99.90;;;;;;5088216;28;20261;-92
2023/01/31 02:31:30;;;;;;;23.40;7.40;;;4.10;99.90;;;;;;5090160;28;20238;-93
2023/01/31 02:34:19;;;;;;;20.30;7.17;;;4.10;99.90;;;;;;5065680;28;20206;-91
2023/01/31 02:37:02;;;;;;;28.13;10.77;;;4.20;99.90;;;;;;5088725;28;20432;-91
2023/01/31 02:39:45;;;;;;;21.13;8.77;;;4.40;99.90;;;;;;5090754;28;20240;-94
2023/01/31 02:42:22;;;;;;;27.63;7.97;;;4.40;99.90;;;;;;5090111;28;20209;-90
2023/01/31 02:45:00;;;;;;;19.43;7.20;;;4.40;99.90;;;;;;5090548;28;20221;-90
2023/01/31 02:47:46;;;;;;;23.80;7.53;;;4.50;99.90;;;;;;5094238;28;20227;-93
2023/01/31 02:50:26;;;;;;;29.87;8.23;;;4.50;99.90;;;;;;5091243;28;20194;-89
2023/01/31 02:53:03;;;;;;;23.47;6.83;;;4.40;99.90;;;;;;5086635;28;20229;-91
2023/01/31 02:58:36;;;;;;;21.60;7.07;;;4.30;99.90;;;;;;5090175;28;20266;-91
2023/01/31 03:01:10;;;;;;;19.70;6.57;;;4.10;99.90;;;;;;5090855;28;20217;-92
2023/01/31 03:03:44;;;;;;;27.97;7.87;;;4.10;99.90;;;;;;5093771;28;20277;-92
2023/01/31 03:06:53;;;;;;;19.33;6.67;;;4.00;99.90;;;;;;5097033;28;20533;-92
2023/01/31 03:09:29;;;;;;;13.60;6.73;;;3.90;99.90;;;;;;5099352;28;20513;-92
2023/01/31 03:12:25;;;;;;;20.77;7.70;;;4.00;99.90;;;;;;5099092;28;20481;-92
2023/01/31 03:15:07;;;;;;;21.83;7.63;;;4.00;99.90;;;;;;5093756;28;20473;-92
2023/01/31 03:18:00;;;;;;;19.90;6.23;;;4.00;99.90;;;;;;5118068;28;20461;-91
2023/01/31 03:20:35;;;;;;;17.30;6.53;;;4.00;99.90;;;;;;5113697;28;20208;-93
2023/01/31 03:23:05;;;;;;;23.50;7.03;;;4.00;99.90;;;;;;5113728;28;20441;-92
2023/01/31 03:25:38;;;;;;;18.13;7.17;;;4.10;99.90;;;;;;5114866;28;20469;-94
2023/01/31 03:28:13;;;;;;;21.93;7.43;;;3.90;99.90;;;;;;5115100;28;20518;-91
2023/01/31 03:30:45;;;;;;;17.00;6.50;;;3.90;99.90;;;;;;5112093;28;20211;-92
2023/01/31 03:33:23;;;;;;;26.23;6.80;;;3.90;99.90;;;;;;5112449;28;20500;-93
2023/01/31 03:36:08;;;;;;;20.63;7.97;;;3.90;99.90;;;;;;5113303;28;20231;-91
2023/01/31 03:38:52;;;;;;;15.17;6.57;;;3.90;99.90;;;;;;5112442;28;20449;-93
2023/01/31 03:41:34;;;;;;;18.33;6.77;;;3.80;99.90;;;;;;5112799;28;20205;-93
2023/01/31 03:44:13;;;;;;;18.27;7.00;;;3.80;99.90;;;;;;5114089;28;20219;-92
2023/01/31 03:46:48;;;;;;;17.37;6.50;;;3.90;99.90;;;;;;5117067;28;20268;-92
2023/01/31 03:49:24;;;;;;;17.57;6.43;;;3.90;99.90;;;;;;5116287;28;20227;-89
2023/01/31 03:52:03;;;;;;;21.13;6.90;;;4.00;99.90;;;;;;5115058;28;20495;-91
2023/01/31 03:54:37;;;;;;;16.97;6.60;;;3.80;99.90;;;;;;5112543;28;20437;-91
2023/01/31 03:57:22;;;;;;;17.73;7.03;;;3.70;99.90;;;;;;5112975;28;21000;-92
2023/01/31 03:59:58;;;;;;;20.57;7.30;;;3.70;99.90;;;;;;5112981;28;20445;-91
2023/01/31 04:02:33;;;;;;;20.58;8.30;;;3.60;99.90;;;;;;5114679;28;20429;-92
2023/01/31 04:05:07;;;;;;;18.10;7.33;;;3.70;99.90;;;;;;5111884;28;20231;-92
2023/01/31 04:07:46;;;;;;;21.13;7.53;;;3.60;99.90;;;;;;5111419;28;20197;-93
2023/01/31 04:10:17;;;;;;;17.97;7.40;;;3.50;99.90;;;;;;5114903;28;20474;-91
2023/01/31 04:12:52;;;;;;;23.93;8.27;;;3.60;99.90;;;;;;5115255;28;20541;-93
2023/01/31 04:15:20;;;;;;;18.23;7.97;;;3.60;99.90;;;;;;5116767;28;20449;-90
2023/01/31 04:17:54;;;;;;;24.43;7.30;;;3.50;99.90;;;;;;5114821;28;20577;-92
2023/01/31 04:20:22;;;;;;;25.97;8.13;;;3.50;99.90;;;;;;5116290;28;20476;-90
2023/01/31 04:22:50;;;;;;;20.67;8.03;;;3.40;99.90;;;;;;5116108;28;20438;-92
2023/01/31 04:25:20;;;;;;;17.03;7.50;;;3.40;99.90;;;;;;5116142;28;21051;-92
2023/01/31 04:27:53;;;;;;;19.37;8.00;;;3.40;99.90;;;;;;5116541;28;20461;-90
2023/01/31 04:30:21;;;;;;;20.83;8.07;;;3.30;99.90;;;;;;5116132;28;20533;-91
2023/01/31 04:32:48;;;;;;;21.97;8.33;;;3.40;99.90;;;;;;5115267;28;20501;-91
2023/01/31 04:35:16;;;;;;;19.47;7.73;;;3.20;99.90;;;;;;5115112;28;20445;-92
2023/01/31 04:37:44;;;;;;;23.80;8.53;;;3.10;99.90;;;;;;5107984;28;21009;-92
2023/01/31 04:40:13;;;;;;;20.70;8.70;;;3.20;99.90;;;;;;5107531;28;20532;-92
2023/01/31 04:42:42;;;;;;;22.70;7.87;;;3.20;99.90;;;;;;5102713;28;20453;-93
2023/01/31 04:45:16;;;;;;;20.00;8.40;;;3.30;99.90;;;;;;5106934;28;20545;-92
2023/01/31 04:47:45;;;;;;;24.33;9.27;;;3.30;99.90;;;;;;5115676;28;20445;-92
2023/01/31 04:50:19;;;;;;;26.53;9.17;;;3.30;99.90;;;;;;5117592;28;20453;-92
2023/01/31 04:52:51;;;;;;;30.03;8.60;;;3.30;99.90;;;;;;5116968;28;20545;-91
2023/01/31 04:55:20;;;;;;;18.50;8.80;;;3.20;99.90;;;;;;5117424;28;20477;-90
2023/01/31 04:57:47;;;;;;;18.63;8.30;;;3.30;99.90;;;;;;5117286;28;20444;-93
2023/01/31 05:00:19;;;;;;;23.38;9.70;;;3.30;99.90;;;;;;5116664;28;20445;-91
2023/01/31 05:02:48;;;;;;;20.30;8.70;;;3.20;99.90;;;;;;5115957;28;20232;-91
2023/01/31 05:05:16;;;;;;;18.87;8.10;;;3.20;99.90;;;;;;5115384;28;20469;-92
2023/01/31 05:07:52;;;;;;;20.43;8.83;;;3.30;99.90;;;;;;5115514;28;20458;-91
2023/01/31 05:10:24;;;;;;;22.57;8.40;;;3.30;99.90;;;;;;5114797;28;20438;-91
2023/01/31 05:12:53;;;;;;;23.37;8.27;;;3.20;99.90;;;;;;5109018;28;20481;-92
2023/01/31 05:15:28;;;;;;;17.20;7.80;;;3.20;99.90;;;;;;5101844;28;20477;-92
2023/01/31 05:18:02;;;;;;;15.47;7.27;;;3.30;99.90;;;;;;5101006;28;20487;-91
2023/01/31 05:20:39;;;;;;;21.63;9.60;;;3.10;99.90;;;;;;5100838;28;20446;-91
2023/01/31 05:23:10;;;;;;;20.37;8.67;;;3.10;99.90;;;;;;5100740;28;20469;-93
2023/01/31 05:25:50;;;;;;;19.80;7.73;;;3.00;99.90;;;;;;5100094;28;20509;-92
2023/01/31 05:28:19;;;;;;;23.07;7.83;;;3.00;99.90;;;;;;5102062;28;20449;-90
2023/01/31 05:30:50;;;;;;;14.67;7.87;;;3.10;99.90;;;;;;5103509;28;20450;-91
2023/01/31 05:33:26;;;;;;;20.50;8.17;;;3.10;99.90;;;;;;5102086;28;20477;-92
2023/01/31 05:35:56;;;;;;;23.60;8.23;;;3.10;99.90;;;;;;5103447;28;20887;-92
2023/01/31 05:38:23;;;;;;;16.63;7.90;;;3.20;99.90;;;;;;5116646;28;20509;-91
2023/01/31 05:40:53;;;;;;;21.23;7.87;;;3.30;99.90;;;;;;5116891;28;20498;-89
2023/01/31 05:43:21;;;;;;;19.50;7.80;;;3.20;99.90;;;;;;5116773;28;20447;-90
2023/01/31 05:45:55;;;;;;;24.57;8.27;;;3.20;99.90;;;;;;5114829;28;20462;-93
2023/01/31 05:48:23;;;;;;;14.53;6.83;;;3.20;99.90;;;;;;5114895;28;20505;-90
2023/01/31 05:50:51;;;;;;;17.13;7.77;;;3.20;99.90;;;;;;5114793;28;20510;-91
2023/01/31 05:53:19;;;;;;;23.03;7.10;;;3.30;99.90;;;;;;5114868;28;20481;-93
2023/01/31 05:55:52;;;;;;;21.93;7.90;;;3.30;99.90;;;;;;5108760;28;20434;-91
2023/01/31 05:58:25;;;;;;;20.30;7.30;;;3.50;99.90;;;;;;5104958;28;20835;-92
2023/01/31 06:00:57;;;;;;;24.70;7.23;;;3.60;99.90;;;;;;5102633;28;20460;-90
2023/01/31 06:03:25;;;;;;;17.77;7.50;;;3.70;99.90;;;;;;5104919;28;20816;-94
2023/01/31 06:05:54;;;;;;;16.53;6.57;;;3.70;99.90;;;;;;5104921;28;20444;-89
2023/01/31 06:08:22;;;;;;;24.77;6.70;;;3.70;99.90;;;;;;5104697;28;20584;-92
2023/01/31 06:10:49;;;;;;;17.87;6.90;;;3.80;99.90;;;;;;5105939;28;20521;-92
2023/01/31 06:13:20;;;;;;;24.87;6.90;;;3.80;99.90;;;;;;5104878;28;20527;-91
2023/01/31 06:15:50;;;;;;;26.03;7.57;;;3.80;99.90;;;;;;5103846;28;20444;-90
2023/01/31 06:18:25;;;;;;;17.50;6.13;;;3.80;99.90;;;;;;5101976;28;20441;-93
2023/01/31 06:21:01;;;;;;;14.03;6.90;;;3.80;99.90;;;;;;5100401;28;20481;-90
2023/01/31 06:23:34;;;;;;;21.00;6.27;;;3.80;99.90;;;;;;5100712;28;20524;-89
2023/01/31 06:26:05;;;;;;;16.73;6.57;;;3.80;99.90;;;;;;5100819;28;20477;-90
2023/01/31 06:28:36;;;;;;;21.50;7.17;;;3.80;99.90;;;;;;5101575;28;20448;-88
2023/01/31 06:31:07;;;;;;;21.07;6.17;;;3.80;99.90;;;;;;5103197;28;20449;-89
2023/01/31 06:33:36;;;;;;;16.80;6.07;;;3.90;99.90;;;;;;5109049;28;20933;-89
2023/01/31 06:36:05;;;;;;;16.10;6.47;;;4.00;99.90;;;;;;5102280;28;20441;-91
2023/01/31 06:38:35;;;;;;;24.93;6.73;;;4.10;99.90;;;;;;5102379;28;20441;-90
2023/01/31 06:41:02;;;;;;;21.27;6.30;;;4.00;99.90;;;;;;5100309;28;20532;-91
2023/01/31 06:43:35;;;;;;;21.10;7.00;;;3.90;99.90;;;;;;5100034;28;20445;-93
2023/01/31 06:46:01;;;;;;;18.70;6.33;;;3.80;99.90;;;;;;5099779;28;21046;-92
2023/01/31 06:48:29;;;;;;;22.00;8.00;;;3.80;99.90;;;;;;5102336;28;20464;-89
2023/01/31 06:51:01;;;;;;;16.70;6.97;;;3.80;99.90;;;;;;5098747;28;20440;-89
2023/01/31 06:53:31;;;;;;;19.40;6.90;;;3.80;99.90;;;;;;5099624;28;20485;-92
2023/01/31 06:56:01;;;;;;;21.73;6.50;;;3.80;99.90;;;;;;5099571;28;20452;-90
2023/01/31 06:58:29;;;;;;;18.00;7.00;;;3.80;99.90;;;;;;5099310;28;20450;-91
2023/01/31 07:01:07;;;;;;;18.97;7.37;;;3.80;99.90;;;;;;5100564;28;20442;-92
2023/01/31 07:03:34;;;;;;;21.27;7.33;;;4.00;99.90;;;;;;5100667;28;20441;-88
2023/01/31 07:06:10;;;;;;;14.10;6.33;;;3.90;99.90;;;;;;5098148;28;20826;-89
2023/01/31 07:08:40;;;;;;;20.40;7.47;;;3.90;99.90;;;;;;5100155;28;20453;-90
2023/01/31 07:11:07;;;;;;;19.27;6.70;;;4.00;99.90;;;;;;5101099;28;20529;-89
2023/01/31 07:13:36;;;;;;;15.93;6.23;;;4.00;99.90;;;;;;5101227;28;20983;-91
2023/01/31 07:16:03;;;;;;;22.93;7.20;;;4.00;99.90;;;;;;5080770;28;20508;-89
2023/01/31 07:18:32;;;;;;;15.43;6.80;;;4.00;99.90;;;;;;5088279;28;20450;-90
2023/01/31 07:21:02;;;;;;;18.47;7.13;;;4.00;99.90;;;;;;5087107;28;20442;-89
2023/01/31 07:23:31;;;;;;;21.23;7.43;;;3.90;99.90;;;;;;5097414;28;21053;-91
2023/01/31 07:26:00;;;;;;;21.77;7.53;;;3.90;99.90;;;;;;5097056;28;20763;-89
2023/01/31 07:28:31;;;;;;;20.63;6.73;;;3.90;99.90;;;;;;5095700;28;20239;-88
2023/01/31 07:31:04;;;;;;;16.67;7.17;;;4.00;99.90;;;;;;5092204;28;20451;-91
2023/01/31 07:33:34;;;;;;;16.60;6.93;;;4.00;99.90;;;;;;5076118;28;20562;-90
2023/01/31 07:36:03;;;;;;;18.83;6.43;;;4.10;99.90;;;;;;5075440;28;20451;-89
2023/01/31 07:38:31;;;;;;;20.30;6.77;;;4.10;99.90;;;;;;5075187;28;20206;-91
2023/01/31 07:40:59;;;;;;;14.57;6.47;;;4.20;99.90;;;;;;5074129;28;20954;-90
2023/01/31 07:43:27;;;;;;;19.30;6.90;;;4.20;99.90;;;;;;5077028;28;20495;-90
2023/01/31 07:45:54;;;;;;;18.37;6.90;;;4.30;99.90;;;;;;5089138;28;20685;-88
2023/01/31 07:48:22;;;;;;;20.47;6.97;;;4.30;99.90;;;;;;5088561;28;20434;-89
2023/01/31 07:50:50;;;;;;;17.03;7.03;;;4.40;99.90;;;;;;5091963;28;20201;-89
2023/01/31 07:53:17;;;;;;;18.53;6.63;;;4.50;99.90;;;;;;5101591;28;20719;-90
2023/01/31 07:55:47;;;;;;;16.50;6.27;;;4.60;99.90;;;;;;5105587;28;20542;-88
2023/01/31 07:58:16;;;;;;;18.40;5.93;;;4.70;99.90;;;;;;5107048;28;20215;-90
2023/01/31 08:03:34;;;;;;;17.80;6.57;;;4.70;99.90;;;;;;5101222;28;20575;-91
2023/01/31 08:06:02;;;;;;;18.30;6.57;;;4.80;99.90;;;;;;5101765;28;20280;-89
2023/01/31 08:08:30;;;;;;;15.87;5.93;;;4.90;99.90;;;;;;5101292;28;20202;-86
2023/01/31 08:11:03;;;;;;;14.43;7.10;;;5.10;99.90;;;;;;5099092;28;20224;-88
2023/01/31 08:13:35;;;;;;;16.33;7.00;;;5.00;99.90;;;;;;5099869;28;20285;-82
2023/01/31 08:16:14;;;;;;;17.03;7.20;;;5.10;99.90;;;;;;5103108;28;20200;-91
2023/01/31 08:18:48;;;;;;;23.77;6.93;;;5.10;99.90;;;;;;5093985;28;20281;-89
2023/01/31 08:21:18;;;;;;;23.80;5.90;;;5.20;99.90;;;;;;5079436;28;20205;-90
2023/01/31 08:23:50;;;;;;;19.73;6.30;;;5.20;99.90;;;;;;5096648;28;20201;-88
2023/01/31 08:26:25;;;;;;;17.37;6.07;;;5.30;99.90;;;;;;5093745;28;20655;-89
2023/01/31 08:28:53;;;;;;;12.23;5.47;;;5.40;99.90;;;;;;5092709;28;20198;-90
2023/01/31 08:31:22;;;;;;;21.30;6.20;;;5.40;99.90;;;;;;5089425;28;20761;-88
2023/01/31 08:33:50;;;;;;;27.43;7.33;;;5.40;99.90;;;;;;5091145;28;20229;-89
2023/01/31 08:36:20;;;;;;;21.27;7.27;;;5.50;99.90;;;;;;5088399;28;20616;-89
2023/01/31 08:38:51;;;;;;;15.23;5.87;;;5.40;99.90;;;;;;5079519;28;20194;-90
2023/01/31 08:41:20;;;;;;;23.40;8.13;;;5.50;99.90;;;;;;5080473;28;20447;-88
2023/01/31 08:43:54;;;;;;;24.17;6.47;;;5.50;99.90;;;;;;5080352;28;20212;-87
2023/01/31 08:46:23;;;;;;;25.10;6.67;;;5.70;99.90;;;;;;5081038;28;20247;-88
2023/01/31 08:48:53;;;;;;;27.07;6.83;;;5.80;99.90;;;;;;5079050;28;20206;-89
2023/01/31 08:51:21;;;;;;;22.27;6.67;;;6.00;99.90;;;;;;5079972;28;20205;-89
2023/01/31 08:53:53;;;;;;;15.53;5.77;;;6.00;99.90;;;;;;5092256;28;20217;-91
2023/01/31 08:56:27;;;;;;;18.73;5.77;;;6.00;99.90;;;;;;5098675;28;20212;-90
2023/01/31 08:59:01;;;;;;;24.40;5.93;;;6.20;99.90;;;;;;5089494;28;20628;-92
2023/01/31 09:01:37;;;;;;;25.50;5.60;;;6.10;99.90;;;;;;5080262;28;20205;-91
2023/01/31 09:04:06;;;;;;;14.20;4.97;;;5.90;99.90;;;;;;5078357;28;20702;-90
2023/01/31 09:06:33;;;;;;;23.13;6.63;;;6.00;99.90;;;;;;5082988;28;20791;-86
2023/01/31 09:09:01;;;;;;;18.80;5.20;;;6.10;99.90;;;;;;5099280;28;20220;-92
2023/01/31 09:11:29;;;;;;;18.00;6.40;;;6.20;99.90;;;;;;5089947;28;20718;-92
2023/01/31 09:13:56;;;;;;;23.20;6.63;;;6.10;99.90;;;;;;5083794;28;20233;-94
2023/01/31 09:16:27;;;;;;;21.20;6.40;;;6.20;99.90;;;;;;5081594;28;20236;-89
2023/01/31 09:18:55;;;;;;;16.07;5.43;;;6.30;99.90;;;;;;5075969;28;20323;-93
2023/01/31 09:21:24;;;;;;;16.90;5.27;;;6.20;99.90;;;;;;5076276;28;20186;-91
2023/01/31 09:23:56;;;;;;;14.30;5.33;;;6.20;99.90;;;;;;5077054;28;20216;-91
2023/01/31 09:26:23;;;;;;;17.70;5.70;;;6.20;99.90;;;;;;5076315;28;20202;-87
2023/01/31 09:28:50;;;;;;;16.93;4.67;;;6.20;99.90;;;;;;5076868;28;20194;-92
2023/01/31 09:31:19;;;;;;;19.67;5.23;;;6.20;99.90;;;;;;5076032;28;20201;-91
2023/01/31 09:33:48;;;;;;;22.95;5.03;;;6.30;99.90;;;;;;5078314;28;20428;-91
2023/01/31 09:36:17;;;;;;;13.93;4.77;;;6.50;99.90;;;;;;5078860;28;20198;-92
2023/01/31 09:38:44;;;;;;;20.23;5.37;;;6.50;99.90;;;;;;5080160;28;20205;-91
2023/01/31 09:41:18;;;;;;;11.63;4.53;;;6.60;99.90;;;;;;5078299;28;20216;-91
2023/01/31 09:43:54;;;;;;;16.70;5.07;;;6.60;99.90;;;;;;5078262;28;20644;-92
2023/01/31 09:46:26;;;;;;;20.07;5.27;;;6.70;99.90;;;;;;5077368;28;20232;-92
2023/01/31 09:48:57;;;;;;;12.97;4.00;;;6.90;99.90;;;;;;5076063;28;20282;-92
2023/01/31 09:51:25;;;;;;;13.10;4.80;;;6.90;99.90;;;;;;5077895;28;20206;-92
2023/01/31 09:53:52;;;;;;;21.17;5.57;;;6.90;99.90;;;;;;5078043;28;20247;-92
2023/01/31 09:56:30;;;;;;;12.43;4.30;;;6.90;99.90;;;;;;5082851;28;20198;-92
2023/01/31 09:59:04;;;;;;;16.00;4.50;;;6.90;99.90;;;;;;5091317;28;20201;-91
2023/01/31 10:01:42;;;;;;;17.43;5.50;;;6.80;99.90;;;;;;5100145;28;20311;-92
2023/01/31 10:04:24;;;;;;;17.93;5.10;;;6.80;99.90;;;;;;5099735;28;20199;-92
2023/01/31 10:06:57;;;;;;;13.77;4.90;;;6.70;99.90;;;;;;5098299;28;20227;-92
2023/01/31 10:09:29;;;;;;;14.80;4.70;;;6.70;99.90;;;;;;5098202;28;20296;-92
2023/01/31 10:12:00;;;;;;;15.07;4.90;;;6.70;99.90;;;;;;5099760;28;20205;-91
2023/01/31 10:14:35;;;;;;;17.47;5.10;;;6.70;99.90;;;;;;5098469;28;20229;-91
2023/01/31 10:17:10;;;;;;;16.60;5.40;;;6.70;99.90;;;;;;5098737;28;20220;-92
2023/01/31 10:19:44;;;;;;;26.50;5.50;;;6.80;99.90;;;;;;5096820;28;20205;-91
2023/01/31 10:22:17;;;;;;;26.23;5.40;;;6.90;99.90;;;;;;5096852;28;20284;-92
2023/01/31 10:24:49;;;;;;;19.87;5.53;;;6.80;99.90;;;;;;5099444;28;20213;-92
2023/01/31 10:27:26;;;;;;;19.43;5.40;;;6.90;99.90;;;;;;5096551;28;20204;-92
2023/01/31 10:29:58;;;;;;;21.15;5.47;;;6.90;99.90;;;;;;5097532;28;20433;-92
2023/01/31 10:32:30;;;;;;;18.07;4.93;;;7.00;99.90;;;;;;5097372;28;20205;-93
2023/01/31 10:35:02;;;;;;;17.17;5.13;;;7.10;99.90;;;;;;5097405;28;20239;-91
2023/01/31 10:37:37;;;;;;;18.60;4.83;;;7.20;99.90;;;;;;5090821;28;20190;-92
2023/01/31 10:40:14;;;;;;;21.13;5.17;;;7.20;99.90;;;;;;5089645;28;20204;-90
2023/01/31 10:42:44;;;;;;;16.23;5.60;;;7.30;99.90;;;;;;5089481;28;20244;-92
2023/01/31 10:45:17;;;;;;;19.30;4.70;;;7.40;99.90;;;;;;5086764;28;20221;-93
2023/01/31 10:47:50;;;;;;;16.10;5.17;;;7.40;99.90;;;;;;5077639;28;20234;-91
2023/01/31 10:50:22;;;;;;;13.50;4.60;;;7.50;99.90;;;;;;5077410;28;20220;-83
2023/01/31 10:53:00;;;;;;;20.30;5.60;;;7.70;99.90;;;;;;5077179;28;20205;-91
2023/01/31 10:55:45;;;;;;;19.80;4.40;;;7.70;99.90;;;;;;5076673;28;20237;-90
2023/01/31 10:58:17;;;;;;;12.43;4.37;;;7.90;99.90;;;;;;5076695;28;20197;-88
2023/01/31 11:00:46;;;;;;;15.47;4.40;;;8.00;99.90;;;;;;5077810;28;20201;-89
2023/01/31 11:03:15;;;;;;;16.37;4.37;;;8.00;99.90;;;;;;5084666;28;20190;-91
2023/01/31 11:05:48;;;;;;;16.77;4.70;;;8.00;99.90;;;;;;5090498;28;20210;-92
2023/01/31 11:08:27;;;;;;;15.07;4.03;;;8.00;99.90;;;;;;5105668;28;20190;-91
2023/01/31 11:11:00;;;;;;;12.90;4.27;;;8.00;99.90;;;;;;5101266;28;20261;-90
2023/01/31 11:14:07;;;;;;;15.93;4.60;;;8.00;99.90;;;;;;5092702;28;20194;-92
2023/01/31 11:16:38;;;;;;;16.10;4.17;;;7.90;99.90;;;;;;5104287;28;20201;-91
2023/01/31 11:19:18;;;;;;;15.33;4.03;;;8.00;99.90;;;;;;5115188;28;20252;-92
2023/01/31 11:21:54;;;;;;;17.03;3.80;;;8.10;99.90;;;;;;5112870;28;20204;-92
2023/01/31 11:24:35;;;;;;;11.70;4.47;;;8.20;99.90;;;;;;5115159;28;20203;-92
2023/01/31 11:27:05;;;;;;;14.43;4.33;;;8.10;99.90;;;;;;5113317;28;20264;-92
2023/01/31 11:29:36;;;;;;;11.43;3.70;;;8.20;99.90;;;;;;5107836;28;20203;-91
2023/01/31 11:32:07;;;;;;;22.57;4.43;;;8.30;99.90;;;;;;5095748;28;20208;-92
2023/01/31 11:34:36;;;;;;;18.23;4.30;;;8.30;99.90;;;;;;5100543;28;20311;-94
2023/01/31 11:37:07;;;;;;;15.50;4.00;;;8.40;99.90;;;;;;5110786;28;20198;-92
2023/01/31 11:39:38;;;;;;;15.07;4.23;;;8.40;99.90;;;;;;5107802;28;20188;-92
2023/01/31 11:42:08;;;;;;;18.03;4.13;;;8.70;99.90;;;;;;5092439;28;20219;-93
2023/01/31 11:44:39;;;;;;;19.23;4.43;;;8.60;99.90;;;;;;5094977;28;20318;-93
2023/01/31 11:47:13;;;;;;;19.93;4.10;;;8.70;99.90;;;;;;5102420;28;20245;-91
2023/01/31 11:49:52;;;;;;;11.60;3.60;;;8.80;99.90;;;;;;5100626;28;20200;-92
2023/01/31 11:52:23;;;;;;;15.20;3.90;;;8.80;99.90;;;;;;5110398;28;20194;-91
2023/01/31 11:54:58;;;;;;;13.87;3.87;;;8.80;99.90;;;;;;5097762;28;20214;-92
2023/01/31 11:57:42;;;;;;;24.13;5.07;;;8.80;99.90;;;;;;5103391;28;20205;-91
2023/01/31 12:00:22;;;;;;;14.40;3.87;;;8.90;99.90;;;;;;5098141;28;20201;-91
2023/01/31 12:02:56;;;;;;;17.17;3.93;;;8.80;99.90;;;;;;5098636;28;20221;-93
2023/01/31 12:05:34;;;;;;;17.17;4.57;;;8.80;99.90;;;;;;5104276;28;20264;-94
2023/01/31 12:08:03;;;;;;;19.00;3.87;;;8.70;99.90;;;;;;5108446;28;20209;-92
2023/01/31 12:10:40;;;;;;;19.17;4.87;;;8.60;99.90;;;;;;5097433;28;20202;-92
2023/01/31 12:13:16;;;;;;;18.97;4.70;;;8.60;99.90;;;;;;5103402;28;20627;-90
2023/01/31 12:15:54;;;;;;;15.60;4.57;;;8.60;99.90;;;;;;5102868;28;20228;-90
2023/01/31 12:18:44;;;;;;;16.77;5.27;;;8.50;99.90;;;;;;5087610;28;20212;-92
2023/01/31 12:21:15;;;;;;;18.57;5.23;;;8.60;99.90;;;;;;5087273;28;20205;-92
2023/01/31 12:23:57;;;;;;;18.07;4.13;;;8.60;99.90;;;;;;5101173;28;20201;-93
2023/01/31 12:26:33;;;;;;;17.77;4.80;;;8.70;99.90;;;;;;5089932;28;20194;-93
2023/01/31 12:29:24;;;;;;;18.13;4.63;;;8.80;99.90;;;;;;5089868;28;20211;-93
2023/01/31 12:32:05;;;;;;;10.07;4.10;;;8.70;99.90;;;;;;5095285;28;20592;-93
2023/01/31 12:34:48;;;;;;;13.30;4.07;;;8.60;99.90;;;;;;5106638;28;20235;-89
2023/01/31 12:37:32;;;;;;;15.67;4.47;;;8.60;99.90;;;;;;5087590;28;20213;-92
2023/01/31 12:40:14;;;;;;;17.07;4.60;;;8.60;99.90;;;;;;5091024;28;20283;-93
2023/01/31 12:42:56;;;;;;;15.37;4.63;;;8.60;99.90;;;;;;5078274;28;20247;-90
2023/01/31 12:45:42;;;;;;;12.83;4.27;;;8.60;99.90;;;;;;5090756;28;20229;-92
2023/01/31 12:48:40;;;;;;;18.30;5.23;;;8.40;99.90;;;;;;5086277;28;20197;-92
2023/01/31 12:51:21;;;;;;;17.17;5.23;;;8.40;99.90;;;;;;5074497;28;20205;-92
2023/01/31 12:54:01;;;;;;;20.83;5.53;;;8.30;99.90;;;;;;5097157;28;20212;-89
2023/01/31 12:56:50;;;;;;;24.75;6.75;;;8.30;99.90;;;;;;5089221;28;20434;-89
2023/01/31 12:59:32;;;;;;;16.87;5.73;;;8.40;99.90;;;;;;5089655;28;20202;-89
2023/01/31 13:02:08;;;;;;;16.87;4.90;;;8.50;99.90;;;;;;5090450;28;20197;-89
2023/01/31 13:04:43;;;;;;;13.10;4.13;;;8.50;99.90;;;;;;5090922;28;20200;-87
2023/01/31 13:07:18;;;;;;;23.83;4.43;;;8.50;99.90;;;;;;5075841;28;20205;-87
2023/01/31 13:09:49;;;;;;;19.07;4.47;;;8.50;99.90;;;;;;5076278;28;20201;-88
2023/01/31 13:12:20;;;;;;;16.47;3.87;;;8.50;99.90;;;;;;5075837;28;20206;-87
2023/01/31 13:14:51;;;;;;;15.67;4.10;;;8.50;99.90;;;;;;5074795;28;20261;-87
2023/01/31 13:17:24;;;;;;;18.47;5.20;;;8.50;99.90;;;;;;5075368;28;20217;-88
2023/01/31 13:19:54;;;;;;;16.73;3.53;;;8.50;99.90;;;;;;5075032;28;20194;-88
2023/01/31 13:22:25;;;;;;;14.60;4.17;;;8.50;99.90;;;;;;5093907;28;20201;-87
2023/01/31 13:25:03;;;;;;;15.63;4.60;;;8.60;99.90;;;;;;5087750;28;20216;-90
2023/01/31 13:27:39;;;;;;;14.83;4.43;;;8.60;99.90;;;;;;5095665;28;20201;-87
2023/01/31 13:30:16;;;;;;;17.45;4.53;;;8.50;99.90;;;;;;5083413;28;20090;-88
2023/01/31 13:32:55;;;;;;;19.93;4.20;;;8.50;99.90;;;;;;5080584;28;20216;-88